Time;durP1;ratioP1;P1;durP2;ratioP2;P2;SDS_P1;SDS_P2;PMS_P1;PMS_P2;Temp;Humidity;BMP_temperature;BMP_pressure;BME280_temperature;BME280_humidity;BME280_pressure;Samples;Min_cycle;Max_cycle;Signal;HPM_P1;HPM_P2
2021/08/24 00:01:49;;;;;;;9.35;3.08;;;;;;;;;;4980581;28;20045;-91
2021/08/24 00:04:18;;;;;;;10.90;3.20;;;;;;;;;;4977681;28;20041;-92
2021/08/24 00:06:47;;;;;;;9.77;3.00;;;;;;;;;;4992808;28;20042;-91
2021/08/24 00:09:16;;;;;;;10.90;3.13;;;;;;;;;;5001645;28;20084;-91
2021/08/24 00:11:45;;;;;;;8.25;2.95;;;;;;;;;;5022412;28;20041;-91
2021/08/24 00:14:14;;;;;;;8.43;3.00;;;;;;;;;;5030027;28;20038;-90
2021/08/24 00:16:43;;;;;;;9.05;2.78;;;;;;;;;;5023200;28;20030;-91
2021/08/24 00:19:12;;;;;;;8.68;3.05;;;;;;;;;;5001275;28;20504;-92
2021/08/24 00:21:39;;;;;;;8.13;2.97;;;;;;;;;;5008019;28;20277;-91
2021/08/24 00:24:07;;;;;;;13.90;3.53;;;;;;;;;;5015434;28;20037;-92
2021/08/24 00:26:38;;;;;;;9.65;3.08;;;;;;;;;;4995614;28;20026;-92
2021/08/24 00:29:05;;;;;;;10.20;3.08;;;;;;;;;;5012789;28;20036;-92
2021/08/24 00:31:34;;;;;;;9.02;3.47;;;;;;;;;;5010964;28;20116;-89
2021/08/24 00:34:02;;;;;;;10.35;3.00;;;;;;;;;;5023157;28;20099;-90
2021/08/24 00:36:31;;;;;;;11.20;3.30;;;;;;;;;;5014833;28;20040;-89
2021/08/24 00:39:03;;;;;;;10.63;3.47;;;;;;;;;;5008579;28;20041;-91
2021/08/24 00:41:35;;;;;;;14.20;3.50;;;;;;;;;;5028754;28;20086;-92
2021/08/24 00:44:02;;;;;;;9.52;3.45;;;;;;;;;;4982773;28;20034;-91
2021/08/24 00:46:42;;;;;;;9.07;2.72;;;;;;;;;;5024531;28;20063;-90
2021/08/24 00:49:14;;;;;;;15.70;3.40;;;;;;;;;;5029902;28;20041;-90
2021/08/24 00:51:42;;;;;;;9.35;3.47;;;;;;;;;;5010570;28;20120;-91
2021/08/24 00:54:11;;;;;;;11.13;3.38;;;;;;;;;;5029009;28;20144;-91
2021/08/24 00:56:40;;;;;;;10.07;2.95;;;;;;;;;;5022974;28;20048;-88
2021/08/24 00:59:08;;;;;;;12.35;3.70;;;;;;;;;;5014797;28;20275;-89
2021/08/24 01:01:36;;;;;;;10.65;3.50;;;;;;;;;;5019060;28;20027;-91
2021/08/24 01:04:04;;;;;;;10.38;3.33;;;;;;;;;;5027754;28;20033;-90
2021/08/24 01:06:49;;;;;;;11.57;4.00;;;;;;;;;;5029869;28;20492;-89
2021/08/24 01:09:36;;;;;;;8.15;3.35;;;;;;;;;;5030397;28;20168;-89
2021/08/24 01:12:26;;;;;;;10.90;3.40;;;;;;;;;;5030169;28;20045;-90
2021/08/24 01:15:07;;;;;;;9.82;3.40;;;;;;;;;;5029828;28;20037;-90
2021/08/24 01:17:42;;;;;;;11.48;3.47;;;;;;;;;;5020048;28;20614;-88
2021/08/24 01:20:28;;;;;;;13.40;3.50;;;;;;;;;;5013304;28;20037;-88
2021/08/24 01:23:33;;;;;;;12.47;4.07;;;;;;;;;;5030031;28;20059;-87
2021/08/24 01:26:18;;;;;;;9.02;3.47;;;;;;;;;;4914789;29;20278;-88
2021/08/24 01:29:18;;;;;;;9.00;3.53;;;;;;;;;;4913432;29;20036;-88
2021/08/24 01:32:03;;;;;;;9.15;3.22;;;;;;;;;;4915397;29;20087;-90
2021/08/24 01:34:52;;;;;;;9.63;3.30;;;;;;;;;;4921343;29;20079;-90
2021/08/24 01:37:32;;;;;;;9.15;3.80;;;;;;;;;;4909339;29;20031;-89
2021/08/24 01:40:22;;;;;;;12.52;3.88;;;;;;;;;;4925699;29;20035;-93
2021/08/24 01:42:52;;;;;;;11.77;3.70;;;;;;;;;;4933022;29;20035;-92
2021/08/24 01:45:26;;;;;;;9.60;3.58;;;;;;;;;;4937177;29;20034;-93
2021/08/24 01:48:06;;;;;;;9.35;3.55;;;;;;;;;;4931285;29;20600;-93
2021/08/24 01:50:56;;;;;;;9.10;3.38;;;;;;;;;;4924442;29;20107;-92
2021/08/24 01:53:35;;;;;;;8.40;3.45;;;;;;;;;;4910015;29;20055;-92
2021/08/24 01:56:21;;;;;;;11.65;3.47;;;;;;;;;;4924366;29;20090;-92
2021/08/24 01:58:51;;;;;;;8.57;3.40;;;;;;;;;;4907152;28;20423;-93
2021/08/24 02:01:25;;;;;;;10.75;3.53;;;;;;;;;;5044595;28;20766;-91
2021/08/24 02:03:58;;;;;;;10.48;3.65;;;;;;;;;;5014703;28;20045;-91
2021/08/24 02:06:32;;;;;;;9.18;3.70;;;;;;;;;;5036515;28;20105;-92
2021/08/24 02:09:05;;;;;;;12.60;3.58;;;;;;;;;;5023557;28;20044;-91
2021/08/24 02:11:34;;;;;;;11.18;3.83;;;;;;;;;;5019209;28;20075;-90
2021/08/24 02:14:06;;;;;;;8.32;3.08;;;;;;;;;;5043289;28;20033;-91
2021/08/24 02:16:36;;;;;;;8.68;3.30;;;;;;;;;;5004513;28;20045;-90
2021/08/24 02:19:12;;;;;;;9.63;3.30;;;;;;;;;;5045016;28;20033;-91
2021/08/24 02:24:37;;;;;;;8.48;3.05;;;;;;;;;;5015643;28;20078;-88
2021/08/24 02:27:10;;;;;;;7.20;2.95;;;;;;;;;;5017141;28;20045;-90
2021/08/24 02:29:36;;;;;;;10.98;3.10;;;;;;;;;;5032842;28;20472;-91
2021/08/24 02:32:08;;;;;;;8.60;3.20;;;;;;;;;;5014959;28;20666;-91
2021/08/24 02:34:35;;;;;;;9.05;3.22;;;;;;;;;;5033912;28;20110;-89
2021/08/24 02:37:09;;;;;;;9.10;2.97;;;;;;;;;;5025673;28;20035;-90
2021/08/24 02:40:09;;;;;;;10.32;3.33;;;;;;;;;;5033530;28;20028;-90
2021/08/24 02:42:48;;;;;;;7.60;2.95;;;;;;;;;;4971717;28;20031;-88
2021/08/24 02:45:18;;;;;;;9.80;3.20;;;;;;;;;;4961650;28;20042;-89
2021/08/24 02:47:47;;;;;;;8.02;2.45;;;;;;;;;;4939279;28;20084;-88
2021/08/24 02:50:14;;;;;;;8.30;3.03;;;;;;;;;;4961592;28;20121;-88
2021/08/24 02:52:42;;;;;;;7.43;2.80;;;;;;;;;;4955707;28;20070;-89
2021/08/24 02:55:10;;;;;;;11.40;2.85;;;;;;;;;;4961543;28;20148;-91
2021/08/24 02:57:40;;;;;;;8.27;3.00;;;;;;;;;;4977672;28;20054;-90
2021/08/24 03:00:08;;;;;;;7.93;2.85;;;;;;;;;;4949250;28;20485;-89
2021/08/24 03:02:35;;;;;;;9.20;2.83;;;;;;;;;;4938293;28;20034;-89
2021/08/24 03:05:04;;;;;;;9.27;2.85;;;;;;;;;;4929474;28;20125;-89
2021/08/24 03:07:35;;;;;;;11.25;2.90;;;;;;;;;;4924481;28;20083;-91
2021/08/24 03:10:15;;;;;;;10.10;3.00;;;;;;;;;;4947104;28;20035;-91
2021/08/24 03:12:45;;;;;;;7.60;2.47;;;;;;;;;;4930493;28;20276;-90
2021/08/24 03:15:26;;;;;;;7.80;2.92;;;;;;;;;;4932314;28;20039;-90
2021/08/24 03:18:04;;;;;;;10.48;2.92;;;;;;;;;;4961616;28;20049;-91
2021/08/24 03:20:36;;;;;;;9.93;2.85;;;;;;;;;;4999857;28;20026;-92
2021/08/24 03:23:07;;;;;;;12.45;2.85;;;;;;;;;;4993787;28;20037;-90
2021/08/24 03:25:37;;;;;;;6.43;2.25;;;;;;;;;;4993114;28;20042;-89
2021/08/24 03:28:04;;;;;;;9.48;2.63;;;;;;;;;;4975065;28;20034;-90
2021/08/24 03:30:37;;;;;;;7.90;2.42;;;;;;;;;;5000802;28;20037;-92
2021/08/24 03:33:04;;;;;;;9.43;2.78;;;;;;;;;;4999580;28;20029;-92
2021/08/24 03:35:34;;;;;;;9.85;3.10;;;;;;;;;;4992065;28;20078;-92
2021/08/24 03:38:00;;;;;;;9.38;2.75;;;;;;;;;;4993854;28;20072;-92
2021/08/24 03:40:27;;;;;;;9.52;3.00;;;;;;;;;;4992975;28;20079;-92
2021/08/24 03:42:58;;;;;;;11.18;2.92;;;;;;;;;;5007592;28;20027;-90
2021/08/24 03:45:27;;;;;;;10.15;2.92;;;;;;;;;;4990036;28;20022;-91
2021/08/24 03:47:55;;;;;;;9.90;2.60;;;;;;;;;;5000384;28;20084;-92
2021/08/24 03:50:23;;;;;;;8.75;3.05;;;;;;;;;;5020585;28;20017;-92
2021/08/24 03:52:52;;;;;;;7.70;2.40;;;;;;;;;;5033713;28;20045;-92
2021/08/24 03:55:19;;;;;;;11.23;2.88;;;;;;;;;;5032405;28;20049;-92
2021/08/24 03:57:49;;;;;;;8.68;3.10;;;;;;;;;;5005810;28;20938;-92
2021/08/24 04:00:16;;;;;;;8.60;2.78;;;;;;;;;;5027798;28;20082;-92
2021/08/24 04:02:46;;;;;;;9.23;2.92;;;;;;;;;;5020733;28;20040;-93
2021/08/24 04:05:13;;;;;;;11.50;3.45;;;;;;;;;;5010838;28;20056;-91
2021/08/24 04:07:42;;;;;;;12.63;2.90;;;;;;;;;;5002630;28;20022;-91
2021/08/24 04:10:09;;;;;;;9.45;2.88;;;;;;;;;;5004803;28;20041;-89
2021/08/24 04:12:38;;;;;;;8.13;2.70;;;;;;;;;;5006190;28;20040;-91
2021/08/24 04:15:09;;;;;;;14.70;3.08;;;;;;;;;;5030982;28;20052;-91
2021/08/24 04:17:39;;;;;;;10.23;2.67;;;;;;;;;;5008252;28;20033;-90
2021/08/24 04:20:10;;;;;;;8.70;2.83;;;;;;;;;;5013443;28;20033;-91
2021/08/24 04:22:42;;;;;;;9.32;2.80;;;;;;;;;;5009851;28;20423;-90
2021/08/24 04:25:12;;;;;;;7.85;2.80;;;;;;;;;;4982006;28;20107;-92
2021/08/24 04:27:39;;;;;;;8.60;2.83;;;;;;;;;;5000344;28;20025;-90
2021/08/24 04:30:07;;;;;;;9.00;2.67;;;;;;;;;;5010268;28;20523;-89
2021/08/24 04:32:36;;;;;;;9.27;2.83;;;;;;;;;;5009763;28;20480;-89
2021/08/24 04:35:04;;;;;;;10.63;2.85;;;;;;;;;;5013746;28;20057;-89
2021/08/24 04:37:33;;;;;;;9.63;2.90;;;;;;;;;;5009221;28;20029;-89
2021/08/24 04:40:03;;;;;;;8.32;2.50;;;;;;;;;;5015723;28;20143;-91
2021/08/24 04:42:30;;;;;;;10.75;3.42;;;;;;;;;;5014909;28;20041;-92
2021/08/24 04:45:01;;;;;;;11.55;3.00;;;;;;;;;;5019953;28;20029;-92
2021/08/24 04:47:38;;;;;;;10.50;3.17;;;;;;;;;;5013889;28;20139;-93
2021/08/24 04:50:10;;;;;;;9.35;3.13;;;;;;;;;;5034849;28;20564;-92
2021/08/24 04:52:46;;;;;;;10.60;3.00;;;;;;;;;;4998194;28;20064;-94
2021/08/24 04:55:13;;;;;;;11.18;2.95;;;;;;;;;;5034358;28;20041;-93
2021/08/24 04:57:44;;;;;;;10.75;3.42;;;;;;;;;;5033211;28;20033;-93
2021/08/24 05:00:16;;;;;;;10.55;3.50;;;;;;;;;;5023309;28;20055;-93
2021/08/24 05:02:44;;;;;;;11.13;4.00;;;;;;;;;;5019465;28;20067;-93
2021/08/24 05:05:12;;;;;;;17.25;4.00;;;;;;;;;;5017160;28;20053;-93
2021/08/24 05:07:39;;;;;;;11.07;3.10;;;;;;;;;;5014535;28;20083;-93
2021/08/24 05:10:08;;;;;;;12.25;2.75;;;;;;;;;;5035608;28;20099;-93
2021/08/24 05:12:37;;;;;;;11.60;3.33;;;;;;;;;;5023516;28;20029;-93
2021/08/24 05:15:05;;;;;;;11.82;2.95;;;;;;;;;;5037073;28;20013;-94
2021/08/24 05:17:33;;;;;;;9.18;2.60;;;;;;;;;;5042641;28;20064;-93
2021/08/24 05:20:00;;;;;;;10.00;3.20;;;;;;;;;;5024971;28;20468;-93
2021/08/24 05:22:29;;;;;;;12.02;2.72;;;;;;;;;;5022679;28;20597;-94
2021/08/24 05:24:58;;;;;;;10.80;2.70;;;;;;;;;;5037814;28;20026;-93
2021/08/24 05:27:27;;;;;;;8.63;2.65;;;;;;;;;;5020796;28;20100;-92
2021/08/24 05:29:54;;;;;;;9.65;2.72;;;;;;;;;;5001757;28;20440;-92
2021/08/24 05:32:22;;;;;;;11.75;3.10;;;;;;;;;;5010377;28;20103;-93
2021/08/24 05:34:53;;;;;;;13.07;2.97;;;;;;;;;;5015979;28;20037;-93
2021/08/24 05:37:20;;;;;;;11.38;2.90;;;;;;;;;;5036924;28;20047;-94
2021/08/24 05:39:49;;;;;;;10.60;2.67;;;;;;;;;;5034276;28;20039;-92
2021/08/24 05:42:19;;;;;;;11.38;2.47;;;;;;;;;;5039578;28;20041;-93
2021/08/24 05:44:46;;;;;;;8.45;1.98;;;;;;;;;;5005832;28;20037;-92
2021/08/24 05:47:15;;;;;;;14.23;2.70;;;;;;;;;;5039039;28;20021;-93
2021/08/24 05:49:44;;;;;;;12.07;2.75;;;;;;;;;;5044442;28;20029;-92
2021/08/24 05:52:13;;;;;;;12.15;3.38;;;;;;;;;;5044154;28;20036;-92
2021/08/24 05:54:39;;;;;;;8.25;2.38;;;;;;;;;;5023125;28;20512;-93
2021/08/24 05:57:07;;;;;;;11.18;2.78;;;;;;;;;;5040422;28;20041;-94
2021/08/24 05:59:36;;;;;;;11.57;2.58;;;;;;;;;;5027860;28;20041;-92
2021/08/24 06:02:05;;;;;;;10.82;2.33;;;;;;;;;;5035481;28;20030;-93
2021/08/24 06:04:38;;;;;;;13.38;2.83;;;;;;;;;;5025028;28;20283;-93
2021/08/24 06:07:08;;;;;;;12.27;2.80;;;;;;;;;;5020999;28;20103;-93
2021/08/24 06:09:37;;;;;;;11.43;2.67;;;;;;;;;;5016665;28;20025;-93
2021/08/24 06:12:05;;;;;;;12.60;2.55;;;;;;;;;;5020638;28;20029;-93
2021/08/24 06:14:34;;;;;;;11.15;3.03;;;;;;;;;;5018173;28;20101;-92
2021/08/24 06:17:02;;;;;;;9.98;2.38;;;;;;;;;;5020703;28;20029;-93
2021/08/24 06:19:34;;;;;;;9.35;1.90;;;;;;;;;;5020593;28;20038;-93
2021/08/24 06:22:03;;;;;;;11.18;2.30;;;;;;;;;;5000907;28;20053;-93
2021/08/24 06:24:37;;;;;;;11.45;2.67;;;;;;;;;;5018253;28;20080;-93
2021/08/24 06:27:06;;;;;;;11.07;2.30;;;;;;;;;;4960482;28;20022;-93
2021/08/24 06:29:34;;;;;;;13.10;2.30;;;;;;;;;;4996776;28;20038;-93
2021/08/24 06:32:05;;;;;;;13.68;2.60;;;;;;;;;;5005855;28;20030;-93
2021/08/24 06:34:34;;;;;;;8.75;2.08;;;;;;;;;;5002395;28;20520;-93
2021/08/24 06:37:03;;;;;;;11.68;2.30;;;;;;;;;;5010896;28;20072;-92
2021/08/24 06:39:36;;;;;;;14.32;2.00;;;;;;;;;;4994356;28;20041;-92
2021/08/24 06:42:05;;;;;;;11.25;1.67;;;;;;;;;;4982034;28;20041;-93
2021/08/24 06:44:33;;;;;;;11.85;2.53;;;;;;;;;;4981128;28;20034;-91
2021/08/24 06:47:03;;;;;;;19.15;2.50;;;;;;;;;;4997239;28;20069;-93
2021/08/24 06:49:33;;;;;;;10.75;2.20;;;;;;;;;;4983540;28;20042;-93
2021/08/24 06:52:04;;;;;;;7.78;1.85;;;;;;;;;;5012032;28;20473;-94
2021/08/24 06:54:32;;;;;;;8.38;2.00;;;;;;;;;;4985222;28;20078;-93
2021/08/24 06:57:01;;;;;;;12.57;2.00;;;;;;;;;;5007984;28;20050;-94
2021/08/24 06:59:28;;;;;;;9.60;1.90;;;;;;;;;;5020414;28;20120;-93
2021/08/24 07:01:57;;;;;;;19.08;2.80;;;;;;;;;;5014850;28;20118;-94
2021/08/24 07:04:24;;;;;;;9.80;2.20;;;;;;;;;;4997176;28;20064;-93
2021/08/24 07:06:51;;;;;;;8.60;1.85;;;;;;;;;;4986930;28;21045;-92
2021/08/24 07:09:20;;;;;;;9.45;1.67;;;;;;;;;;5030729;28;20589;-93
2021/08/24 07:11:48;;;;;;;21.33;2.53;;;;;;;;;;5034267;28;20025;-94
2021/08/24 07:14:15;;;;;;;11.23;1.70;;;;;;;;;;5025203;28;20046;-93
2021/08/24 07:16:43;;;;;;;11.30;2.08;;;;;;;;;;5022130;28;20055;-91
2021/08/24 07:19:13;;;;;;;9.13;1.85;;;;;;;;;;5035607;28;20052;-92
2021/08/24 07:21:41;;;;;;;9.32;1.88;;;;;;;;;;5028618;28;20224;-93
2021/08/24 07:24:09;;;;;;;8.90;2.10;;;;;;;;;;5023989;28;20029;-93
2021/08/24 07:26:39;;;;;;;7.70;1.83;;;;;;;;;;5033648;28;20040;-93
2021/08/24 07:29:12;;;;;;;12.88;2.00;;;;;;;;;;5034691;28;20042;-94
2021/08/24 07:31:39;;;;;;;7.70;2.13;;;;;;;;;;5040383;28;20040;-93
2021/08/24 07:34:10;;;;;;;14.45;2.33;;;;;;;;;;5028272;28;20050;-93
2021/08/24 07:36:40;;;;;;;13.43;1.98;;;;;;;;;;5030627;28;20133;-93
2021/08/24 07:39:08;;;;;;;12.68;2.08;;;;;;;;;;5021196;28;20103;-93
2021/08/24 07:41:38;;;;;;;9.00;1.75;;;;;;;;;;5013875;28;20060;-93
2021/08/24 07:44:06;;;;;;;6.88;1.60;;;;;;;;;;5004077;28;20037;-93
2021/08/24 07:46:33;;;;;;;9.98;1.52;;;;;;;;;;5019646;28;20029;-93
2021/08/24 07:49:07;;;;;;;13.88;1.98;;;;;;;;;;5019861;28;20061;-93
2021/08/24 07:51:34;;;;;;;9.18;1.80;;;;;;;;;;4986346;28;20513;-92
2021/08/24 07:54:04;;;;;;;12.10;2.42;;;;;;;;;;5005828;28;20041;-94
2021/08/24 07:56:33;;;;;;;8.52;1.80;;;;;;;;;;5020514;28;20033;-93
2021/08/24 07:59:01;;;;;;;9.30;1.83;;;;;;;;;;5026590;28;20033;-93
2021/08/24 08:01:31;;;;;;;14.43;2.13;;;;;;;;;;5021828;28;20804;-94
2021/08/24 08:03:59;;;;;;;9.02;1.70;;;;;;;;;;5018942;28;20033;-93
2021/08/24 08:06:27;;;;;;;10.60;1.88;;;;;;;;;;5009292;28;20033;-94
2021/08/24 08:08:57;;;;;;;7.43;1.83;;;;;;;;;;4997322;28;20076;-95
2021/08/24 08:11:25;;;;;;;15.15;3.17;;;;;;;;;;4994120;28;22771;-94
2021/08/24 08:13:53;;;;;;;11.65;2.67;;;;;;;;;;4985288;28;20056;-92
2021/08/24 08:16:19;;;;;;;11.40;2.10;;;;;;;;;;4986271;28;20030;-94
2021/08/24 08:18:50;;;;;;;9.18;2.50;;;;;;;;;;4997604;28;20038;-92
2021/08/24 08:21:40;;;;;;;12.50;2.30;;;;;;;;;;4980428;28;20049;-93
2021/08/24 08:24:09;;;;;;;8.93;1.70;;;;;;;;;;4955831;28;20046;-94
2021/08/24 08:26:37;;;;;;;9.70;2.38;;;;;;;;;;4964025;28;20034;-93
2021/08/24 08:29:12;;;;;;;9.77;1.88;;;;;;;;;;4967744;28;20513;-92
2021/08/24 08:31:41;;;;;;;12.32;2.50;;;;;;;;;;4972221;28;20038;-93
2021/08/24 08:34:10;;;;;;;9.18;1.90;;;;;;;;;;4965440;28;20160;-92
2021/08/24 08:36:39;;;;;;;6.05;1.65;;;;;;;;;;4963209;28;20049;-92
2021/08/24 08:39:06;;;;;;;8.27;1.83;;;;;;;;;;4983461;28;20042;-92
2021/08/24 08:41:43;;;;;;;8.75;1.85;;;;;;;;;;4985904;28;20026;-93
2021/08/24 08:44:40;;;;;;;9.45;1.88;;;;;;;;;;4979858;28;20130;-93
2021/08/24 08:47:22;;;;;;;11.25;1.80;;;;;;;;;;4954780;28;20051;-92
2021/08/24 08:50:14;;;;;;;11.10;1.90;;;;;;;;;;4965760;28;20065;-92
2021/08/24 08:53:00;;;;;;;9.27;1.60;;;;;;;;;;4970204;28;20035;-92
2021/08/24 08:55:38;;;;;;;6.40;1.52;;;;;;;;;;4975699;28;20027;-93
2021/08/24 08:58:08;;;;;;;9.93;1.70;;;;;;;;;;4979900;28;20065;-93
2021/08/24 09:00:50;;;;;;;8.02;1.98;;;;;;;;;;4989011;28;20042;-92
2021/08/24 09:03:43;;;;;;;9.43;1.80;;;;;;;;;;5005530;28;20038;-93
2021/08/24 09:06:11;;;;;;;7.95;1.83;;;;;;;;;;4996112;28;20042;-93
2021/08/24 09:08:41;;;;;;;8.57;2.00;;;;;;;;;;5000882;28;20039;-93
2021/08/24 09:11:10;;;;;;;9.10;1.60;;;;;;;;;;5001593;28;20046;-93
2021/08/24 09:13:52;;;;;;;9.63;1.70;;;;;;;;;;4990795;28;20058;-94
2021/08/24 09:16:32;;;;;;;7.65;1.70;;;;;;;;;;5015000;28;20073;-93
2021/08/24 09:19:21;;;;;;;8.52;1.98;;;;;;;;;;5010043;28;20054;-93
2021/08/24 09:21:53;;;;;;;7.50;1.80;;;;;;;;;;5021113;28;20023;-93
2021/08/24 09:24:28;;;;;;;9.52;1.80;;;;;;;;;;5044467;28;20026;-90
2021/08/24 09:27:33;;;;;;;7.82;1.75;;;;;;;;;;5042357;28;20060;-93
2021/08/24 09:30:08;;;;;;;8.82;1.55;;;;;;;;;;5045887;28;20034;-93
2021/08/24 09:32:58;;;;;;;6.40;1.58;;;;;;;;;;5051656;28;20037;-92
2021/08/24 09:35:32;;;;;;;8.18;1.70;;;;;;;;;;5073748;22;20037;-87
2021/08/24 09:38:01;;;;;;;8.95;1.92;;;;;;;;;;5049721;28;20032;-84
2021/08/24 09:40:37;;;;;;;6.57;1.90;;;;;;;;;;5046678;28;20032;-86
2021/08/24 09:43:24;;;;;;;6.78;1.67;;;;;;;;;;5040435;28;20025;-86
2021/08/24 09:46:02;;;;;;;9.35;2.03;;;;;;;;;;5019943;28;20118;-86
2021/08/24 09:48:29;;;;;;;11.00;2.10;;;;;;;;;;5025548;28;20036;-87
2021/08/24 09:51:15;;;;;;;7.63;1.73;;;;;;;;;;5024577;28;20033;-86
2021/08/24 09:53:42;;;;;;;6.68;1.90;;;;;;;;;;5039490;28;20032;-85
2021/08/24 09:56:09;;;;;;;7.68;2.00;;;;;;;;;;5033848;28;20034;-85
2021/08/24 09:58:38;;;;;;;9.65;2.08;;;;;;;;;;5020340;28;20021;-85
2021/08/24 10:01:06;;;;;;;7.60;2.10;;;;;;;;;;5041121;28;20024;-87
2021/08/24 10:03:35;;;;;;;7.00;1.70;;;;;;;;;;5017372;28;20120;-86
2021/08/24 10:06:04;;;;;;;10.32;1.98;;;;;;;;;;5014340;28;20025;-85
2021/08/24 10:08:34;;;;;;;7.82;1.63;;;;;;;;;;4998757;28;20962;-87
2021/08/24 10:11:02;;;;;;;8.82;2.10;;;;;;;;;;5014473;28;20112;-86
2021/08/24 10:13:33;;;;;;;10.90;2.08;;;;;;;;;;5012455;28;20049;-86
2021/08/24 10:16:05;;;;;;;10.63;2.00;;;;;;;;;;5006229;28;20575;-87
2021/08/24 10:18:33;;;;;;;8.15;1.70;;;;;;;;;;4997636;28;20415;-88
2021/08/24 10:21:09;;;;;;;8.18;1.70;;;;;;;;;;5025670;28;20496;-85
2021/08/24 10:23:40;;;;;;;10.32;2.30;;;;;;;;;;5001192;28;20028;-86
2021/08/24 10:26:11;;;;;;;14.75;2.17;;;;;;;;;;5003169;28;20099;-85
2021/08/24 10:28:49;;;;;;;9.85;2.20;;;;;;;;;;4994940;28;20059;-86
2021/08/24 10:31:33;;;;;;;9.60;1.95;;;;;;;;;;5001086;28;20038;-86
2021/08/24 10:34:25;;;;;;;8.90;1.98;;;;;;;;;;4998966;28;20052;-85
2021/08/24 10:36:53;;;;;;;7.82;1.88;;;;;;;;;;5018916;28;20060;-85
2021/08/24 10:39:31;;;;;;;9.75;1.80;;;;;;;;;;4997517;28;20505;-84
2021/08/24 10:42:06;;;;;;;10.40;2.20;;;;;;;;;;4994183;28;20025;-84
2021/08/24 10:44:52;;;;;;;10.80;2.05;;;;;;;;;;4988741;28;20057;-83
2021/08/24 10:47:18;;;;;;;;;;;;;;;;;;5014810;28;20017;-84
2021/08/24 10:49:44;;;;;;;8.23;2.00;;;;;;;;;;4991908;28;19924;-83
2021/08/24 10:52:13;;;;;;;7.07;1.50;;;;;;;;;;5009708;28;20021;-83
2021/08/24 10:54:42;;;;;;;10.55;2.17;;;;;;;;;;4991271;28;20032;-82
2021/08/24 10:57:21;;;;;;;9.02;2.05;;;;;;;;;;4995766;28;20041;-83
2021/08/24 10:59:58;;;;;;;11.15;2.40;;;;;;;;;;4990143;28;20071;-85
2021/08/24 11:02:40;;;;;;;12.85;2.20;;;;;;;;;;4996249;28;20029;-83
2021/08/24 11:05:26;;;;;;;11.77;2.25;;;;;;;;;;5021244;28;20037;-82
2021/08/24 11:08:11;;;;;;;9.07;2.05;;;;;;;;;;4970559;28;20115;-84
2021/08/24 11:10:46;;;;;;;13.75;2.42;;;;;;;;;;4993350;28;20050;-85
2021/08/24 11:13:31;;;;;;;8.57;1.77;;;;;;;;;;4995721;28;20384;-81
2021/08/24 11:16:00;;;;;;;15.40;2.10;;;;;;;;;;4993693;28;20037;-85
2021/08/24 11:18:40;;;;;;;9.95;2.03;;;;;;;;;;5016895;28;20060;-86
2021/08/24 11:21:12;;;;;;;9.68;2.05;;;;;;;;;;4996367;28;20044;-84
2021/08/24 11:23:44;;;;;;;10.32;2.17;;;;;;;;;;5007918;28;20032;-84
2021/08/24 11:26:18;;;;;;;6.45;1.55;;;;;;;;;;4995626;28;20030;-84
2021/08/24 11:28:55;;;;;;;9.20;2.00;;;;;;;;;;4990413;28;20088;-84
2021/08/24 11:31:29;;;;;;;6.65;1.88;;;;;;;;;;5017913;28;20022;-82
2021/08/24 11:34:02;;;;;;;10.50;2.05;;;;;;;;;;5001993;28;20029;-82
2021/08/24 11:36:57;;;;;;;9.15;1.80;;;;;;;;;;5010170;28;20155;-81
2021/08/24 11:39:36;;;;;;;7.72;1.70;;;;;;;;;;4941284;28;20135;-81
2021/08/24 11:42:03;;;;;;;8.70;1.65;;;;;;;;;;4940443;28;20059;-82
2021/08/24 11:44:38;;;;;;;9.88;1.75;;;;;;;;;;4934210;28;20125;-82
2021/08/24 11:47:12;;;;;;;12.63;2.20;;;;;;;;;;4933555;28;20074;-82
2021/08/24 11:49:56;;;;;;;9.10;1.95;;;;;;;;;;4916380;28;20054;-83
2021/08/24 11:52:23;;;;;;;10.48;1.83;;;;;;;;;;4921969;28;20041;-80
2021/08/24 11:55:12;;;;;;;7.00;2.03;;;;;;;;;;4912718;28;20039;-83
2021/08/24 11:57:44;;;;;;;19.15;2.38;;;;;;;;;;4933646;28;20028;-83
2021/08/24 12:00:13;;;;;;;11.18;2.05;;;;;;;;;;4921649;28;20049;-82
2021/08/24 12:02:42;;;;;;;11.07;2.15;;;;;;;;;;4927707;28;20046;-83
2021/08/24 12:05:16;;;;;;;18.77;3.03;;;;;;;;;;4953033;28;20031;-83
2021/08/24 12:07:43;;;;;;;11.13;1.88;;;;;;;;;;4931092;28;20858;-81
2021/08/24 12:10:27;;;;;;;13.35;2.15;;;;;;;;;;4939618;28;20073;-81
2021/08/24 12:13:01;;;;;;;11.85;2.00;;;;;;;;;;4926970;28;20037;-80
2021/08/24 12:15:38;;;;;;;13.90;2.10;;;;;;;;;;4944740;28;20045;-79
2021/08/24 12:18:20;;;;;;;8.55;2.20;;;;;;;;;;5008180;28;20040;-81
2021/08/24 12:20:51;;;;;;;6.90;1.92;;;;;;;;;;4996187;28;20105;-81
2021/08/24 12:23:31;;;;;;;6.85;1.85;;;;;;;;;;5008724;28;20034;-80
2021/08/24 12:25:58;;;;;;;8.68;2.13;;;;;;;;;;5003612;28;20516;-80
2021/08/24 12:28:24;;;;;;;8.35;2.03;;;;;;;;;;5003083;28;20128;-81
2021/08/24 12:31:00;;;;;;;7.32;1.90;;;;;;;;;;5000761;28;20088;-79
2021/08/24 12:33:29;;;;;;;7.95;1.90;;;;;;;;;;4988325;28;20033;-80
2021/08/24 12:35:56;;;;;;;10.50;2.20;;;;;;;;;;4983604;28;20061;-81
2021/08/24 12:38:43;;;;;;;8.90;2.00;;;;;;;;;;4969366;28;20073;-84
2021/08/24 12:41:09;;;;;;;9.15;1.90;;;;;;;;;;4968007;28;20125;-84
2021/08/24 12:43:44;;;;;;;6.60;1.88;;;;;;;;;;4964880;28;20742;-84
2021/08/24 12:46:19;;;;;;;9.68;2.00;;;;;;;;;;4964641;28;20038;-82
2021/08/24 12:49:04;;;;;;;7.25;1.77;;;;;;;;;;4965791;28;20030;-83
2021/08/24 12:51:31;;;;;;;5.60;1.48;;;;;;;;;;4976034;28;20026;-83
2021/08/24 12:54:02;;;;;;;9.70;1.80;;;;;;;;;;4967172;28;20030;-81
2021/08/24 12:56:37;;;;;;;8.75;2.10;;;;;;;;;;4970812;28;20033;-81
2021/08/24 12:59:03;;;;;;;5.57;1.60;;;;;;;;;;4966914;28;20042;-81
2021/08/24 13:01:31;;;;;;;9.30;1.95;;;;;;;;;;4965454;28;20030;-81
2021/08/24 13:04:05;;;;;;;7.45;1.90;;;;;;;;;;4981166;28;20030;-80
2021/08/24 13:06:32;;;;;;;8.02;2.60;;;;;;;;;;4968424;28;20037;-87
2021/08/24 13:09:17;;;;;;;7.93;2.03;;;;;;;;;;4978851;28;20082;-84
2021/08/24 13:12:03;;;;;;;6.18;1.85;;;;;;;;;;4977693;28;20032;-83
2021/08/24 13:14:39;;;;;;;6.90;1.70;;;;;;;;;;4984353;28;20041;-85
2021/08/24 13:17:06;;;;;;;6.63;1.90;;;;;;;;;;4966963;28;20029;-82
2021/08/24 13:19:32;;;;;;;6.57;1.80;;;;;;;;;;4963156;28;20026;-82
2021/08/24 13:22:00;;;;;;;7.15;1.83;;;;;;;;;;4970412;28;20019;-83
2021/08/24 13:24:42;;;;;;;6.07;1.75;;;;;;;;;;4972395;28;20730;-83
2021/08/24 13:27:16;;;;;;;6.53;1.73;;;;;;;;;;4969498;28;20128;-83
2021/08/24 13:29:43;;;;;;;7.50;1.92;;;;;;;;;;4967352;28;20037;-85
2021/08/24 13:32:28;;;;;;;6.30;1.85;;;;;;;;;;4966796;28;20121;-84
2021/08/24 13:34:55;;;;;;;7.53;2.00;;;;;;;;;;4980934;28;20036;-85
2021/08/24 13:37:30;;;;;;;7.63;1.90;;;;;;;;;;4969478;28;20107;-83
2021/08/24 13:39:58;;;;;;;6.55;1.83;;;;;;;;;;4967590;28;20137;-85
2021/08/24 13:42:25;;;;;;;6.47;1.90;;;;;;;;;;4965113;28;20033;-83
2021/08/24 13:44:51;;;;;;;6.97;1.90;;;;;;;;;;4956286;28;20719;-83
2021/08/24 13:47:19;;;;;;;7.03;1.80;;;;;;;;;;4969851;28;20498;-82
2021/08/24 13:49:50;;;;;;;7.97;2.00;;;;;;;;;;4961643;28;20435;-84
2021/08/24 13:52:33;;;;;;;6.18;1.70;;;;;;;;;;4967764;28;20033;-83
2021/08/24 13:55:00;;;;;;;8.27;1.60;;;;;;;;;;4988781;28;20119;-83
2021/08/24 13:57:27;;;;;;;7.85;2.22;;;;;;;;;;4965581;28;20038;-83
2021/08/24 13:59:56;;;;;;;5.45;1.75;;;;;;;;;;4975755;28;20252;-83
2021/08/24 14:02:25;;;;;;;5.15;1.55;;;;;;;;;;4999751;28;20478;-82
2021/08/24 14:04:51;;;;;;;6.70;1.77;;;;;;;;;;4979059;28;20118;-84
2021/08/24 14:07:29;;;;;;;7.18;1.63;;;;;;;;;;4986451;28;20515;-85
2021/08/24 14:10:02;;;;;;;5.28;1.60;;;;;;;;;;4972783;28;20062;-89
2021/08/24 14:12:39;;;;;;;6.32;1.55;;;;;;;;;;4978362;28;20634;-86
2021/08/24 14:15:12;;;;;;;8.85;1.73;;;;;;;;;;4969350;28;20057;-81
2021/08/24 14:17:48;;;;;;;8.80;2.00;;;;;;;;;;4969638;28;20137;-84
2021/08/24 14:20:24;;;;;;;6.97;1.83;;;;;;;;;;4991040;28;20087;-86
2021/08/24 14:22:53;;;;;;;6.15;1.88;;;;;;;;;;4992293;28;20049;-89
2021/08/24 14:25:21;;;;;;;5.15;1.88;;;;;;;;;;4977761;28;20066;-85
2021/08/24 14:27:48;;;;;;;8.02;1.83;;;;;;;;;;4986599;28;20437;-88
2021/08/24 14:30:24;;;;;;;7.18;2.05;;;;;;;;;;4997313;28;20037;-88
2021/08/24 14:32:52;;;;;;;5.35;1.52;;;;;;;;;;5001665;28;20038;-86
2021/08/24 14:35:37;;;;;;;7.18;1.92;;;;;;;;;;4974971;28;20026;-83
2021/08/24 14:38:04;;;;;;;8.82;2.00;;;;;;;;;;5007507;28;20040;-81
2021/08/24 14:40:35;;;;;;;5.00;1.70;;;;;;;;;;5017380;28;20354;-82
2021/08/24 14:43:04;;;;;;;8.55;1.85;;;;;;;;;;5029730;28;20017;-91
2021/08/24 14:45:35;;;;;;;5.90;1.73;;;;;;;;;;5028285;28;20017;-92
2021/08/24 14:51:16;;;;;;;7.20;1.70;;;;;;;;;;5010428;28;20095;-85
2021/08/24 14:53:47;;;;;;;6.05;1.60;;;;;;;;;;5010377;28;20028;-85
2021/08/24 14:56:24;;;;;;;5.45;1.48;;;;;;;;;;5009011;28;20025;-84
2021/08/24 14:59:09;;;;;;;7.45;1.80;;;;;;;;;;5007430;28;20038;-84
2021/08/24 15:01:45;;;;;;;7.43;1.80;;;;;;;;;;4999684;28;20064;-87
2021/08/24 15:04:11;;;;;;;;;;;;;;;;;;4987133;28;20028;-81
2021/08/24 15:06:39;;;;;;;8.43;1.90;;;;;;;;;;4986568;28;20758;-83
2021/08/24 15:09:24;;;;;;;8.93;2.00;;;;;;;;;;4989059;28;20747;-82
2021/08/24 15:11:50;;;;;;;4.97;1.48;;;;;;;;;;4998107;28;20056;-82
2021/08/24 15:14:21;;;;;;;6.25;1.70;;;;;;;;;;5002283;28;20021;-84
2021/08/24 15:16:55;;;;;;;5.68;1.40;;;;;;;;;;4988992;28;20033;-86